sensor_id;sensor_type;location;lat;lon;timestamp;P1;durP1;ratioP1;P2;durP2;ratioP2
53269;SDS011;39159;45.634;9.420;2022-11-15T00:00:50;45.65;;;22.33;;
53269;SDS011;39159;45.634;9.420;2022-11-15T00:03:16;62.10;;;29.88;;
53269;SDS011;39159;45.634;9.420;2022-11-15T00:05:43;51.63;;;26.98;;
53269;SDS011;39159;45.634;9.420;2022-11-15T00:08:09;49.85;;;25.27;;
53269;SDS011;39159;45.634;9.420;2022-11-15T00:10:35;39.10;;;21.50;;
53269;SDS011;39159;45.634;9.420;2022-11-15T00:13:05;34.10;;;18.35;;
53269;SDS011;39159;45.634;9.420;2022-11-15T00:15:37;28.40;;;17.13;;
53269;SDS011;39159;45.634;9.420;2022-11-15T00:18:04;29.63;;;16.73;;
53269;SDS011;39159;45.634;9.420;2022-11-15T00:20:31;67.05;;;34.42;;
53269;SDS011;39159;45.634;9.420;2022-11-15T00:22:58;33.50;;;19.88;;
53269;SDS011;39159;45.634;9.420;2022-11-15T00:25:24;27.05;;;16.95;;
53269;SDS011;39159;45.634;9.420;2022-11-15T00:27:49;43.70;;;22.67;;
53269;SDS011;39159;45.634;9.420;2022-11-15T00:30:16;88.53;;;41.53;;
53269;SDS011;39159;45.634;9.420;2022-11-15T00:32:42;55.60;;;27.80;;
53269;SDS011;39159;45.634;9.420;2022-11-15T00:35:07;34.47;;;21.00;;
53269;SDS011;39159;45.634;9.420;2022-11-15T00:37:33;33.08;;;19.05;;
53269;SDS011;39159;45.634;9.420;2022-11-15T00:39:58;30.17;;;17.80;;
53269;SDS011;39159;45.634;9.420;2022-11-15T00:42:24;39.28;;;21.85;;
53269;SDS011;39159;45.634;9.420;2022-11-15T00:44:49;33.90;;;19.92;;
53269;SDS011;39159;45.634;9.420;2022-11-15T00:47:14;32.95;;;18.33;;
53269;SDS011;39159;45.634;9.420;2022-11-15T00:49:40;32.13;;;18.27;;
53269;SDS011;39159;45.634;9.420;2022-11-15T00:52:06;31.70;;;18.42;;
53269;SDS011;39159;45.634;9.420;2022-11-15T00:54:32;32.40;;;19.15;;
53269;SDS011;39159;45.634;9.420;2022-11-15T00:56:57;31.50;;;18.52;;
53269;SDS011;39159;45.634;9.420;2022-11-15T00:59:23;31.15;;;17.88;;
53269;SDS011;39159;45.634;9.420;2022-11-15T01:01:48;29.95;;;17.90;;
53269;SDS011;39159;45.634;9.420;2022-11-15T01:04:13;29.75;;;18.33;;
53269;SDS011;39159;45.634;9.420;2022-11-15T01:06:39;31.73;;;18.30;;
53269;SDS011;39159;45.634;9.420;2022-11-15T01:09:04;27.90;;;15.48;;
53269;SDS011;39159;45.634;9.420;2022-11-15T01:11:30;26.25;;;15.55;;
53269;SDS011;39159;45.634;9.420;2022-11-15T01:13:55;25.73;;;15.40;;
53269;SDS011;39159;45.634;9.420;2022-11-15T01:16:21;26.30;;;16.13;;
53269;SDS011;39159;45.634;9.420;2022-11-15T01:18:46;25.17;;;14.88;;
53269;SDS011;39159;45.634;9.420;2022-11-15T01:21:13;24.65;;;15.20;;
53269;SDS011;39159;45.634;9.420;2022-11-15T01:23:41;25.40;;;15.65;;
53269;SDS011;39159;45.634;9.420;2022-11-15T01:26:07;26.17;;;13.93;;
53269;SDS011;39159;45.634;9.420;2022-11-15T01:28:36;21.35;;;13.88;;
53269;SDS011;39159;45.634;9.420;2022-11-15T01:31:04;22.52;;;14.63;;
53269;SDS011;39159;45.634;9.420;2022-11-15T01:33:33;25.85;;;15.55;;
53269;SDS011;39159;45.634;9.420;2022-11-15T01:36:02;25.08;;;15.23;;
53269;SDS011;39159;45.634;9.420;2022-11-15T01:38:30;25.75;;;15.63;;
53269;SDS011;39159;45.634;9.420;2022-11-15T01:40:55;28.27;;;16.58;;
53269;SDS011;39159;45.634;9.420;2022-11-15T01:45:56;29.48;;;17.58;;
53269;SDS011;39159;45.634;9.420;2022-11-15T01:48:42;26.15;;;15.85;;
53269;SDS011;39159;45.634;9.420;2022-11-15T01:51:09;27.83;;;17.75;;
53269;SDS011;39159;45.634;9.420;2022-11-15T01:53:38;33.33;;;19.40;;
53269;SDS011;39159;45.634;9.420;2022-11-15T01:56:08;30.77;;;17.88;;
53269;SDS011;39159;45.634;9.420;2022-11-15T01:58:37;35.78;;;17.55;;
53269;SDS011;39159;45.634;9.420;2022-11-15T02:01:04;30.73;;;17.42;;
53269;SDS011;39159;45.634;9.420;2022-11-15T02:06:26;27.70;;;15.85;;
53269;SDS011;39159;45.634;9.420;2022-11-15T02:08:51;25.80;;;14.32;;
53269;SDS011;39159;45.634;9.420;2022-11-15T02:11:18;26.80;;;15.35;;
53269;SDS011;39159;45.634;9.420;2022-11-15T02:13:43;25.35;;;14.48;;
53269;SDS011;39159;45.634;9.420;2022-11-15T02:25:03;29.85;;;15.05;;
53269;SDS011;39159;45.634;9.420;2022-11-15T02:30:51;30.52;;;15.20;;
53269;SDS011;39159;45.634;9.420;2022-11-15T02:36:14;26.33;;;14.25;;
53269;SDS011;39159;45.634;9.420;2022-11-15T02:49:20;25.58;;;13.88;;
53269;SDS011;39159;45.634;9.420;2022-11-15T02:51:48;23.77;;;13.65;;
53269;SDS011;39159;45.634;9.420;2022-11-15T02:54:25;20.90;;;13.13;;
53269;SDS011;39159;45.634;9.420;2022-11-15T02:56:58;20.92;;;12.15;;
53269;SDS011;39159;45.634;9.420;2022-11-15T03:05:07;21.50;;;12.15;;
53269;SDS011;39159;45.634;9.420;2022-11-15T03:11:08;19.00;;;11.70;;
53269;SDS011;39159;45.634;9.420;2022-11-15T03:18:55;19.30;;;11.90;;
53269;SDS011;39159;45.634;9.420;2022-11-15T03:21:29;21.50;;;11.57;;
53269;SDS011;39159;45.634;9.420;2022-11-15T03:23:58;18.35;;;11.07;;
53269;SDS011;39159;45.634;9.420;2022-11-15T03:26:28;17.60;;;11.13;;
53269;SDS011;39159;45.634;9.420;2022-11-15T03:28:56;19.42;;;11.38;;
53269;SDS011;39159;45.634;9.420;2022-11-15T03:31:29;21.52;;;12.52;;
53269;SDS011;39159;45.634;9.420;2022-11-15T03:34:29;19.25;;;11.55;;
53269;SDS011;39159;45.634;9.420;2022-11-15T03:36:57;17.88;;;11.23;;
53269;SDS011;39159;45.634;9.420;2022-11-15T03:39:23;20.13;;;11.70;;
53269;SDS011;39159;45.634;9.420;2022-11-15T03:41:52;21.35;;;11.50;;
53269;SDS011;39159;45.634;9.420;2022-11-15T03:49:29;18.60;;;11.30;;
53269;SDS011;39159;45.634;9.420;2022-11-15T03:52:02;20.60;;;11.63;;
53269;SDS011;39159;45.634;9.420;2022-11-15T03:54:28;23.15;;;11.52;;
53269;SDS011;39159;45.634;9.420;2022-11-15T03:56:54;18.00;;;10.60;;
53269;SDS011;39159;45.634;9.420;2022-11-15T03:59:19;21.88;;;12.13;;
53269;SDS011;39159;45.634;9.420;2022-11-15T04:01:45;17.67;;;10.85;;
53269;SDS011;39159;45.634;9.420;2022-11-15T04:04:10;16.27;;;9.98;;
53269;SDS011;39159;45.634;9.420;2022-11-15T04:06:36;15.57;;;10.50;;
53269;SDS011;39159;45.634;9.420;2022-11-15T04:09:02;16.25;;;10.00;;
53269;SDS011;39159;45.634;9.420;2022-11-15T04:11:27;17.65;;;9.10;;
53269;SDS011;39159;45.634;9.420;2022-11-15T04:13:53;14.55;;;9.30;;
53269;SDS011;39159;45.634;9.420;2022-11-15T04:16:18;16.65;;;10.43;;
53269;SDS011;39159;45.634;9.420;2022-11-15T04:18:44;15.93;;;9.85;;
53269;SDS011;39159;45.634;9.420;2022-11-15T04:21:09;15.05;;;9.60;;
53269;SDS011;39159;45.634;9.420;2022-11-15T04:23:53;15.27;;;9.38;;
53269;SDS011;39159;45.634;9.420;2022-11-15T04:26:37;14.48;;;9.32;;
53269;SDS011;39159;45.634;9.420;2022-11-15T04:29:02;15.80;;;10.02;;
53269;SDS011;39159;45.634;9.420;2022-11-15T04:31:46;15.15;;;9.43;;
53269;SDS011;39159;45.634;9.420;2022-11-15T04:34:11;15.95;;;9.77;;
53269;SDS011;39159;45.634;9.420;2022-11-15T04:36:37;18.20;;;9.93;;
53269;SDS011;39159;45.634;9.420;2022-11-15T04:39:21;16.55;;;10.25;;
53269;SDS011;39159;45.634;9.420;2022-11-15T04:41:46;15.30;;;9.73;;
53269;SDS011;39159;45.634;9.420;2022-11-15T04:44:12;17.20;;;10.77;;
53269;SDS011;39159;45.634;9.420;2022-11-15T04:46:37;16.20;;;9.93;;
53269;SDS011;39159;45.634;9.420;2022-11-15T04:49:02;12.13;;;8.65;;
53269;SDS011;39159;45.634;9.420;2022-11-15T04:51:28;11.52;;;8.13;;
53269;SDS011;39159;45.634;9.420;2022-11-15T04:53:53;15.20;;;8.90;;
53269;SDS011;39159;45.634;9.420;2022-11-15T04:56:19;13.82;;;8.35;;
53269;SDS011;39159;45.634;9.420;2022-11-15T04:58:44;13.50;;;8.73;;
53269;SDS011;39159;45.634;9.420;2022-11-15T05:01:10;12.82;;;8.85;;
53269;SDS011;39159;45.634;9.420;2022-11-15T05:03:38;14.68;;;8.50;;
53269;SDS011;39159;45.634;9.420;2022-11-15T05:06:22;11.90;;;7.90;;
53269;SDS011;39159;45.634;9.420;2022-11-15T05:08:48;12.93;;;7.75;;
53269;SDS011;39159;45.634;9.420;2022-11-15T05:11:13;11.57;;;7.70;;
53269;SDS011;39159;45.634;9.420;2022-11-15T05:13:39;13.05;;;8.32;;
53269;SDS011;39159;45.634;9.420;2022-11-15T05:16:04;12.70;;;7.65;;
53269;SDS011;39159;45.634;9.420;2022-11-15T05:18:29;11.70;;;7.68;;
53269;SDS011;39159;45.634;9.420;2022-11-15T05:20:55;11.88;;;7.53;;
53269;SDS011;39159;45.634;9.420;2022-11-15T05:23:20;11.80;;;7.50;;
53269;SDS011;39159;45.634;9.420;2022-11-15T05:25:46;11.18;;;7.38;;
53269;SDS011;39159;45.634;9.420;2022-11-15T05:28:11;12.13;;;7.63;;
53269;SDS011;39159;45.634;9.420;2022-11-15T05:30:37;11.27;;;7.80;;
53269;SDS011;39159;45.634;9.420;2022-11-15T05:33:03;13.82;;;8.63;;
53269;SDS011;39159;45.634;9.420;2022-11-15T05:35:34;12.32;;;8.05;;
53269;SDS011;39159;45.634;9.420;2022-11-15T05:38:04;18.52;;;10.30;;
53269;SDS011;39159;45.634;9.420;2022-11-15T05:40:30;19.83;;;10.10;;
53269;SDS011;39159;45.634;9.420;2022-11-15T05:42:57;14.65;;;8.85;;
53269;SDS011;39159;45.634;9.420;2022-11-15T05:45:25;13.90;;;8.48;;
53269;SDS011;39159;45.634;9.420;2022-11-15T05:47:50;12.20;;;7.35;;
53269;SDS011;39159;45.634;9.420;2022-11-15T05:50:19;11.65;;;7.50;;
53269;SDS011;39159;45.634;9.420;2022-11-15T05:52:44;10.88;;;7.38;;
53269;SDS011;39159;45.634;9.420;2022-11-15T05:55:11;13.20;;;7.47;;
53269;SDS011;39159;45.634;9.420;2022-11-15T05:57:37;10.52;;;6.85;;
53269;SDS011;39159;45.634;9.420;2022-11-15T06:00:04;11.13;;;6.75;;
53269;SDS011;39159;45.634;9.420;2022-11-15T06:02:30;13.65;;;8.45;;
53269;SDS011;39159;45.634;9.420;2022-11-15T06:04:55;12.02;;;7.28;;
53269;SDS011;39159;45.634;9.420;2022-11-15T06:07:21;13.60;;;8.25;;
53269;SDS011;39159;45.634;9.420;2022-11-15T06:09:46;13.43;;;8.68;;
53269;SDS011;39159;45.634;9.420;2022-11-15T06:12:12;15.02;;;8.57;;
53269;SDS011;39159;45.634;9.420;2022-11-15T06:14:38;13.57;;;8.38;;
53269;SDS011;39159;45.634;9.420;2022-11-15T06:17:03;11.60;;;7.43;;
53269;SDS011;39159;45.634;9.420;2022-11-15T06:19:29;10.05;;;6.75;;
53269;SDS011;39159;45.634;9.420;2022-11-15T06:21:58;12.30;;;7.80;;
53269;SDS011;39159;45.634;9.420;2022-11-15T06:24:24;13.77;;;7.45;;
53269;SDS011;39159;45.634;9.420;2022-11-15T06:26:49;13.63;;;8.77;;
53269;SDS011;39159;45.634;9.420;2022-11-15T06:29:14;14.18;;;8.77;;
53269;SDS011;39159;45.634;9.420;2022-11-15T06:31:40;14.18;;;8.80;;
53269;SDS011;39159;45.634;9.420;2022-11-15T06:34:05;13.43;;;8.85;;
53269;SDS011;39159;45.634;9.420;2022-11-15T06:36:31;15.57;;;9.50;;
53269;SDS011;39159;45.634;9.420;2022-11-15T06:39:00;14.77;;;9.75;;
53269;SDS011;39159;45.634;9.420;2022-11-15T06:41:25;15.02;;;9.23;;
53269;SDS011;39159;45.634;9.420;2022-11-15T06:43:50;14.25;;;9.73;;
53269;SDS011;39159;45.634;9.420;2022-11-15T06:46:16;14.82;;;9.60;;
53269;SDS011;39159;45.634;9.420;2022-11-15T06:48:41;16.92;;;10.38;;
53269;SDS011;39159;45.634;9.420;2022-11-15T06:51:07;16.35;;;9.55;;
53269;SDS011;39159;45.634;9.420;2022-11-15T06:53:33;16.42;;;9.88;;
53269;SDS011;39159;45.634;9.420;2022-11-15T06:56:05;17.33;;;9.43;;
53269;SDS011;39159;45.634;9.420;2022-11-15T06:58:31;16.95;;;9.82;;
53269;SDS011;39159;45.634;9.420;2022-11-15T07:01:00;13.75;;;9.10;;
53269;SDS011;39159;45.634;9.420;2022-11-15T07:03:30;16.60;;;10.30;;
53269;SDS011;39159;45.634;9.420;2022-11-15T07:05:57;20.52;;;11.02;;
53269;SDS011;39159;45.634;9.420;2022-11-15T07:08:23;17.13;;;10.10;;
53269;SDS011;39159;45.634;9.420;2022-11-15T07:10:49;18.58;;;10.70;;
53269;SDS011;39159;45.634;9.420;2022-11-15T07:13:15;17.58;;;10.20;;
53269;SDS011;39159;45.634;9.420;2022-11-15T07:15:40;14.52;;;9.68;;
53269;SDS011;39159;45.634;9.420;2022-11-15T07:18:06;15.68;;;9.60;;
53269;SDS011;39159;45.634;9.420;2022-11-15T07:20:31;21.20;;;12.70;;
53269;SDS011;39159;45.634;9.420;2022-11-15T07:23:03;24.65;;;15.10;;
53269;SDS011;39159;45.634;9.420;2022-11-15T07:25:30;21.50;;;13.68;;
53269;SDS011;39159;45.634;9.420;2022-11-15T07:27:56;22.92;;;14.52;;
53269;SDS011;39159;45.634;9.420;2022-11-15T07:30:23;24.55;;;16.48;;
53269;SDS011;39159;45.634;9.420;2022-11-15T07:32:55;28.80;;;17.92;;
53269;SDS011;39159;45.634;9.420;2022-11-15T07:35:22;30.67;;;17.73;;
53269;SDS011;39159;45.634;9.420;2022-11-15T07:38:01;27.13;;;17.70;;
53269;SDS011;39159;45.634;9.420;2022-11-15T07:40:28;32.38;;;18.00;;
53269;SDS011;39159;45.634;9.420;2022-11-15T07:42:59;32.92;;;19.90;;
53269;SDS011;39159;45.634;9.420;2022-11-15T07:45:29;29.35;;;17.70;;
53269;SDS011;39159;45.634;9.420;2022-11-15T07:47:55;34.60;;;20.25;;
53269;SDS011;39159;45.634;9.420;2022-11-15T07:50:21;31.40;;;18.75;;
53269;SDS011;39159;45.634;9.420;2022-11-15T07:52:52;29.77;;;18.02;;
53269;SDS011;39159;45.634;9.420;2022-11-15T07:55:25;30.55;;;18.35;;
53269;SDS011;39159;45.634;9.420;2022-11-15T07:57:52;29.80;;;17.60;;
53269;SDS011;39159;45.634;9.420;2022-11-15T08:00:18;26.63;;;16.38;;
53269;SDS011;39159;45.634;9.420;2022-11-15T08:02:44;29.90;;;17.08;;
53269;SDS011;39159;45.634;9.420;2022-11-15T08:05:10;29.50;;;16.63;;
53269;SDS011;39159;45.634;9.420;2022-11-15T08:07:35;28.60;;;15.23;;
53269;SDS011;39159;45.634;9.420;2022-11-15T08:10:01;30.15;;;16.33;;
53269;SDS011;39159;45.634;9.420;2022-11-15T08:12:27;26.65;;;14.63;;
53269;SDS011;39159;45.634;9.420;2022-11-15T08:14:54;25.15;;;14.43;;
53269;SDS011;39159;45.634;9.420;2022-11-15T08:17:20;22.75;;;14.60;;
53269;SDS011;39159;45.634;9.420;2022-11-15T08:19:46;26.05;;;14.32;;
53269;SDS011;39159;45.634;9.420;2022-11-15T08:22:12;20.40;;;13.18;;
53269;SDS011;39159;45.634;9.420;2022-11-15T08:24:37;24.00;;;13.45;;
53269;SDS011;39159;45.634;9.420;2022-11-15T08:27:04;36.03;;;14.23;;
53269;SDS011;39159;45.634;9.420;2022-11-15T08:29:29;25.23;;;14.38;;
53269;SDS011;39159;45.634;9.420;2022-11-15T08:31:55;27.17;;;13.82;;
53269;SDS011;39159;45.634;9.420;2022-11-15T08:34:21;32.97;;;13.68;;
53269;SDS011;39159;45.634;9.420;2022-11-15T08:36:46;23.40;;;14.00;;
53269;SDS011;39159;45.634;9.420;2022-11-15T08:39:12;24.83;;;14.57;;
53269;SDS011;39159;45.634;9.420;2022-11-15T08:41:38;24.45;;;14.55;;
53269;SDS011;39159;45.634;9.420;2022-11-15T08:44:04;31.02;;;15.82;;
53269;SDS011;39159;45.634;9.420;2022-11-15T08:46:29;27.65;;;14.63;;
53269;SDS011;39159;45.634;9.420;2022-11-15T08:48:55;24.38;;;15.18;;
53269;SDS011;39159;45.634;9.420;2022-11-15T08:51:20;28.20;;;15.15;;
53269;SDS011;39159;45.634;9.420;2022-11-15T08:53:46;24.02;;;13.85;;
53269;SDS011;39159;45.634;9.420;2022-11-15T08:56:12;23.25;;;13.15;;
53269;SDS011;39159;45.634;9.420;2022-11-15T08:58:39;21.15;;;12.15;;
53269;SDS011;39159;45.634;9.420;2022-11-15T09:01:05;26.27;;;11.77;;
53269;SDS011;39159;45.634;9.420;2022-11-15T09:03:30;21.13;;;11.18;;
53269;SDS011;39159;45.634;9.420;2022-11-15T09:06:00;21.17;;;11.52;;
53269;SDS011;39159;45.634;9.420;2022-11-15T09:08:29;35.50;;;11.15;;
53269;SDS011;39159;45.634;9.420;2022-11-15T09:10:55;27.15;;;10.35;;
53269;SDS011;39159;45.634;9.420;2022-11-15T09:13:21;18.33;;;9.40;;
53269;SDS011;39159;45.634;9.420;2022-11-15T09:15:47;15.18;;;9.18;;
53269;SDS011;39159;45.634;9.420;2022-11-15T09:18:12;15.95;;;10.00;;
53269;SDS011;39159;45.634;9.420;2022-11-15T09:20:38;14.40;;;9.10;;
53269;SDS011;39159;45.634;9.420;2022-11-15T09:23:04;14.30;;;8.80;;
53269;SDS011;39159;45.634;9.420;2022-11-15T09:25:30;11.73;;;8.35;;
53269;SDS011;39159;45.634;9.420;2022-11-15T09:27:56;13.25;;;8.77;;
53269;SDS011;39159;45.634;9.420;2022-11-15T09:30:22;13.95;;;8.25;;
53269;SDS011;39159;45.634;9.420;2022-11-15T09:32:48;14.23;;;8.40;;
53269;SDS011;39159;45.634;9.420;2022-11-15T09:35:14;19.50;;;8.38;;
53269;SDS011;39159;45.634;9.420;2022-11-15T09:37:39;14.82;;;8.88;;
53269;SDS011;39159;45.634;9.420;2022-11-15T09:40:05;19.67;;;9.40;;
53269;SDS011;39159;45.634;9.420;2022-11-15T09:48:47;19.95;;;9.93;;
53269;SDS011;39159;45.634;9.420;2022-11-15T09:51:06;16.00;;;8.32;;
53269;SDS011;39159;45.634;9.420;2022-11-15T09:53:40;14.85;;;8.68;;
53269;SDS011;39159;45.634;9.420;2022-11-15T09:56:22;15.77;;;8.82;;
53269;SDS011;39159;45.634;9.420;2022-11-15T10:04:14;15.95;;;7.85;;
53269;SDS011;39159;45.634;9.420;2022-11-15T10:06:42;12.73;;;8.15;;
53269;SDS011;39159;45.634;9.420;2022-11-15T10:11:49;10.73;;;6.88;;
53269;SDS011;39159;45.634;9.420;2022-11-15T10:14:16;14.75;;;7.97;;
53269;SDS011;39159;45.634;9.420;2022-11-15T10:22:47;13.88;;;9.32;;
53269;SDS011;39159;45.634;9.420;2022-11-15T10:27:47;13.23;;;8.07;;
53269;SDS011;39159;45.634;9.420;2022-11-15T10:30:18;14.02;;;8.32;;
53269;SDS011;39159;45.634;9.420;2022-11-15T10:32:44;12.35;;;8.00;;
53269;SDS011;39159;45.634;9.420;2022-11-15T10:37:48;14.07;;;9.32;;
53269;SDS011;39159;45.634;9.420;2022-11-15T10:40:16;18.73;;;9.93;;
53269;SDS011;39159;45.634;9.420;2022-11-15T10:42:46;15.02;;;8.70;;
53269;SDS011;39159;45.634;9.420;2022-11-15T10:45:26;15.65;;;9.15;;
53269;SDS011;39159;45.634;9.420;2022-11-15T10:47:53;19.90;;;9.82;;
53269;SDS011;39159;45.634;9.420;2022-11-15T10:50:46;17.45;;;10.40;;
53269;SDS011;39159;45.634;9.420;2022-11-15T10:53:15;14.95;;;9.90;;
53269;SDS011;39159;45.634;9.420;2022-11-15T10:56:03;17.73;;;9.48;;
53269;SDS011;39159;45.634;9.420;2022-11-15T10:58:33;18.95;;;9.93;;
53269;SDS011;39159;45.634;9.420;2022-11-15T11:03:43;16.80;;;9.88;;
53269;SDS011;39159;45.634;9.420;2022-11-15T11:06:12;14.63;;;9.55;;
53269;SDS011;39159;45.634;9.420;2022-11-15T11:08:39;16.92;;;9.98;;
53269;SDS011;39159;45.634;9.420;2022-11-15T11:11:12;17.52;;;10.38;;
53269;SDS011;39159;45.634;9.420;2022-11-15T11:13:38;18.90;;;10.85;;
53269;SDS011;39159;45.634;9.420;2022-11-15T11:29:49;16.83;;;9.77;;
53269;SDS011;39159;45.634;9.420;2022-11-15T11:35:22;15.73;;;9.95;;
53269;SDS011;39159;45.634;9.420;2022-11-15T11:43:49;17.30;;;10.73;;
53269;SDS011;39159;45.634;9.420;2022-11-15T11:51:41;15.50;;;9.80;;
53269;SDS011;39159;45.634;9.420;2022-11-15T11:54:54;17.08;;;10.63;;
53269;SDS011;39159;45.634;9.420;2022-11-15T12:00:29;16.17;;;9.80;;
53269;SDS011;39159;45.634;9.420;2022-11-15T12:05:44;17.17;;;10.00;;
53269;SDS011;39159;45.634;9.420;2022-11-15T12:10:48;18.58;;;10.73;;
53269;SDS011;39159;45.634;9.420;2022-11-15T12:13:21;20.58;;;10.85;;
53269;SDS011;39159;45.634;9.420;2022-11-15T12:15:58;18.83;;;10.90;;
53269;SDS011;39159;45.634;9.420;2022-11-15T12:18:29;17.83;;;10.30;;
53269;SDS011;39159;45.634;9.420;2022-11-15T12:20:59;18.75;;;11.30;;
53269;SDS011;39159;45.634;9.420;2022-11-15T12:23:32;18.25;;;10.60;;
53269;SDS011;39159;45.634;9.420;2022-11-15T12:26:10;20.05;;;11.43;;
53269;SDS011;39159;45.634;9.420;2022-11-15T12:28:49;19.42;;;11.85;;
53269;SDS011;39159;45.634;9.420;2022-11-15T12:31:29;18.77;;;11.48;;
53269;SDS011;39159;45.634;9.420;2022-11-15T12:33:57;17.98;;;11.05;;
53269;SDS011;39159;45.634;9.420;2022-11-15T12:38:59;19.20;;;11.70;;
53269;SDS011;39159;45.634;9.420;2022-11-15T12:41:41;16.45;;;10.30;;
53269;SDS011;39159;45.634;9.420;2022-11-15T12:44:12;18.05;;;11.43;;
53269;SDS011;39159;45.634;9.420;2022-11-15T12:46:58;17.90;;;10.95;;
53269;SDS011;39159;45.634;9.420;2022-11-15T13:02:19;17.33;;;9.95;;
53269;SDS011;39159;45.634;9.420;2022-11-15T13:04:46;19.73;;;10.98;;
53269;SDS011;39159;45.634;9.420;2022-11-15T13:07:54;19.48;;;11.98;;
53269;SDS011;39159;45.634;9.420;2022-11-15T13:09:59;24.67;;;11.80;;
53269;SDS011;39159;45.634;9.420;2022-11-15T13:14:52;19.73;;;11.85;;
53269;SDS011;39159;45.634;9.420;2022-11-15T13:19:45;23.15;;;12.55;;
53269;SDS011;39159;45.634;9.420;2022-11-15T13:22:12;21.70;;;12.10;;
53269;SDS011;39159;45.634;9.420;2022-11-15T13:24:56;20.60;;;12.88;;
53269;SDS011;39159;45.634;9.420;2022-11-15T13:27:22;22.40;;;13.00;;
53269;SDS011;39159;45.634;9.420;2022-11-15T13:29:48;20.48;;;12.35;;
53269;SDS011;39159;45.634;9.420;2022-11-15T13:32:14;24.52;;;14.27;;
53269;SDS011;39159;45.634;9.420;2022-11-15T13:34:44;23.88;;;14.13;;
53269;SDS011;39159;45.634;9.420;2022-11-15T13:39:47;29.30;;;16.45;;
53269;SDS011;39159;45.634;9.420;2022-11-15T13:42:17;21.48;;;13.85;;
53269;SDS011;39159;45.634;9.420;2022-11-15T13:47:26;22.65;;;14.35;;
53269;SDS011;39159;45.634;9.420;2022-11-15T13:49:52;17.90;;;11.43;;
53269;SDS011;39159;45.634;9.420;2022-11-15T13:52:18;20.85;;;13.20;;
53269;SDS011;39159;45.634;9.420;2022-11-15T14:02:51;20.27;;;12.20;;
53269;SDS011;39159;45.634;9.420;2022-11-15T14:05:20;19.98;;;12.02;;
53269;SDS011;39159;45.634;9.420;2022-11-15T14:07:58;19.98;;;12.05;;
53269;SDS011;39159;45.634;9.420;2022-11-15T14:12:58;22.50;;;13.52;;
53269;SDS011;39159;45.634;9.420;2022-11-15T14:18:00;23.40;;;14.95;;
53269;SDS011;39159;45.634;9.420;2022-11-15T14:23:04;23.10;;;13.95;;
53269;SDS011;39159;45.634;9.420;2022-11-15T14:25:51;24.40;;;13.55;;
53269;SDS011;39159;45.634;9.420;2022-11-15T14:30:47;23.85;;;15.30;;
53269;SDS011;39159;45.634;9.420;2022-11-15T14:38:28;23.50;;;13.38;;
53269;SDS011;39159;45.634;9.420;2022-11-15T14:40:54;22.63;;;13.48;;
53269;SDS011;39159;45.634;9.420;2022-11-15T14:43:20;22.65;;;13.18;;
53269;SDS011;39159;45.634;9.420;2022-11-15T14:45:46;22.50;;;14.13;;
53269;SDS011;39159;45.634;9.420;2022-11-15T14:48:12;22.40;;;13.40;;
53269;SDS011;39159;45.634;9.420;2022-11-15T14:50:37;21.65;;;13.15;;
53269;SDS011;39159;45.634;9.420;2022-11-15T14:53:03;24.80;;;13.93;;
53269;SDS011;39159;45.634;9.420;2022-11-15T14:55:33;24.35;;;15.10;;
53269;SDS011;39159;45.634;9.420;2022-11-15T14:58:04;23.30;;;14.90;;
53269;SDS011;39159;45.634;9.420;2022-11-15T15:00:33;21.88;;;13.75;;
53269;SDS011;39159;45.634;9.420;2022-11-15T15:02:59;23.35;;;14.32;;
53269;SDS011;39159;45.634;9.420;2022-11-15T15:05:27;24.52;;;14.27;;
53269;SDS011;39159;45.634;9.420;2022-11-15T15:08:05;20.65;;;12.73;;
53269;SDS011;39159;45.634;9.420;2022-11-15T15:10:32;26.85;;;15.32;;
53269;SDS011;39159;45.634;9.420;2022-11-15T15:13:00;29.80;;;15.18;;
53269;SDS011;39159;45.634;9.420;2022-11-15T15:15:27;24.60;;;14.00;;
53269;SDS011;39159;45.634;9.420;2022-11-15T15:17:57;25.42;;;14.68;;
53269;SDS011;39159;45.634;9.420;2022-11-15T15:20:23;32.95;;;18.27;;
53269;SDS011;39159;45.634;9.420;2022-11-15T15:22:48;31.92;;;18.83;;
53269;SDS011;39159;45.634;9.420;2022-11-15T15:25:24;29.25;;;17.55;;
53269;SDS011;39159;45.634;9.420;2022-11-15T15:27:53;32.28;;;18.70;;
53269;SDS011;39159;45.634;9.420;2022-11-15T15:30:19;27.67;;;17.40;;
53269;SDS011;39159;45.634;9.420;2022-11-15T15:32:45;30.77;;;16.35;;
53269;SDS011;39159;45.634;9.420;2022-11-15T15:35:13;25.45;;;15.35;;
53269;SDS011;39159;45.634;9.420;2022-11-15T15:37:40;25.33;;;14.68;;
53269;SDS011;39159;45.634;9.420;2022-11-15T15:40:11;26.67;;;14.80;;
53269;SDS011;39159;45.634;9.420;2022-11-15T15:42:45;25.75;;;16.60;;
53269;SDS011;39159;45.634;9.420;2022-11-15T15:45:11;27.65;;;16.65;;
53269;SDS011;39159;45.634;9.420;2022-11-15T15:47:36;28.40;;;17.42;;
53269;SDS011;39159;45.634;9.420;2022-11-15T15:50:02;25.52;;;16.13;;
53269;SDS011;39159;45.634;9.420;2022-11-15T15:52:29;27.38;;;16.10;;
53269;SDS011;39159;45.634;9.420;2022-11-15T15:54:54;26.75;;;15.82;;
53269;SDS011;39159;45.634;9.420;2022-11-15T15:57:20;24.63;;;15.55;;
53269;SDS011;39159;45.634;9.420;2022-11-15T15:59:45;26.13;;;15.45;;
53269;SDS011;39159;45.634;9.420;2022-11-15T16:02:13;24.42;;;15.13;;
53269;SDS011;39159;45.634;9.420;2022-11-15T16:04:40;29.20;;;15.93;;
53269;SDS011;39159;45.634;9.420;2022-11-15T16:07:05;22.75;;;14.43;;
53269;SDS011;39159;45.634;9.420;2022-11-15T16:09:39;23.52;;;13.73;;
53269;SDS011;39159;45.634;9.420;2022-11-15T16:12:23;21.40;;;13.10;;
53269;SDS011;39159;45.634;9.420;2022-11-15T16:14:48;23.08;;;13.32;;
53269;SDS011;39159;45.634;9.420;2022-11-15T16:17:15;22.17;;;13.00;;
53269;SDS011;39159;45.634;9.420;2022-11-15T16:19:44;26.98;;;12.68;;
53269;SDS011;39159;45.634;9.420;2022-11-15T16:22:09;27.48;;;14.93;;
53269;SDS011;39159;45.634;9.420;2022-11-15T16:24:36;24.90;;;14.38;;
53269;SDS011;39159;45.634;9.420;2022-11-15T16:27:02;26.33;;;14.40;;
53269;SDS011;39159;45.634;9.420;2022-11-15T16:29:27;22.00;;;13.88;;
53269;SDS011;39159;45.634;9.420;2022-11-15T16:31:53;22.00;;;13.32;;
53269;SDS011;39159;45.634;9.420;2022-11-15T16:34:19;23.90;;;13.80;;
53269;SDS011;39159;45.634;9.420;2022-11-15T16:36:45;24.73;;;14.48;;
53269;SDS011;39159;45.634;9.420;2022-11-15T16:39:11;23.15;;;13.27;;
53269;SDS011;39159;45.634;9.420;2022-11-15T16:41:38;23.60;;;13.68;;
53269;SDS011;39159;45.634;9.420;2022-11-15T16:44:04;24.65;;;14.82;;
53269;SDS011;39159;45.634;9.420;2022-11-15T16:46:30;23.52;;;14.02;;
53269;SDS011;39159;45.634;9.420;2022-11-15T16:48:55;23.92;;;14.40;;
53269;SDS011;39159;45.634;9.420;2022-11-15T16:51:21;25.13;;;15.70;;
53269;SDS011;39159;45.634;9.420;2022-11-15T16:53:47;27.23;;;15.02;;
53269;SDS011;39159;45.634;9.420;2022-11-15T16:56:17;26.45;;;16.05;;
53269;SDS011;39159;45.634;9.420;2022-11-15T16:58:50;26.40;;;15.70;;
53269;SDS011;39159;45.634;9.420;2022-11-15T17:01:17;26.40;;;14.50;;
53269;SDS011;39159;45.634;9.420;2022-11-15T17:03:44;24.67;;;15.20;;
53269;SDS011;39159;45.634;9.420;2022-11-15T17:06:09;23.35;;;14.43;;
53269;SDS011;39159;45.634;9.420;2022-11-15T17:08:36;24.42;;;15.20;;
53269;SDS011;39159;45.634;9.420;2022-11-15T17:11:06;23.88;;;13.80;;
53269;SDS011;39159;45.634;9.420;2022-11-15T17:13:32;23.42;;;13.88;;
53269;SDS011;39159;45.634;9.420;2022-11-15T17:16:05;23.13;;;12.95;;